Airfield :
LOGIN :

Register | Disclaimer

   EN    FR    IT 

 










Legend :    VFR   Marginal VFR   IFR   Intensive IFR   Very Intensive IFR
Visi :
Ceiling :
>= 8 km
>= 3000ft
5 to 8 km
1000 to 3000 ft
1500m to 5 km
500 to 1000 ft
800 to 1500m
200 to 500 ft
< 800m
< 200 ft
Symbols :   Thunderstorms  Fog  Heavy snow  Heavy precipitations  Wind > 20 kt
SIGMETs :     Misc.  Thunderstorms  Icing  Turbulence  Mountain Waves  Volcanic Ashes






- Airport Elevation : 122 ft
- IATA code : TXL


EDDT - Berlin Tegel Int.

CURRENT METAR :
  • 141250Z 24010KT 9999 -RA FEW006 BKN008 03/02 Q0988 TEMPO BKN010

EXPIRED METARs :
  • 141220Z 22010KT 9999 -RA FEW006 BKN008 03/02 Q0987 TEMPO BKN010
  • 141150Z 24010KT 9999 -RA FEW006 BKN008 03/02 Q0987 TEMPO BKN010
  • 141120Z 21009KT 180V240 9000 -RA FEW008 BKN011 04/03 Q0986 TEMPO BKN009
  • 141050Z 21011KT 9000 -RA BKN012 04/03 Q0985 TEMPO BKN009
  • 141020Z 20010KT 160V230 9999 -RA FEW010 SCT018 05/03 Q0985 TEMPO RA BKN012
  • 140950Z 20010KT 9999 -RA FEW011 SCT035 05/03 Q0985 TEMPO RA BKN012

TAF TAF EDDT
Valid from the 14 at 12:00 until the 15 at 12:00 UTC


141100Z 1412/1512 23013G23KT 9999 SCT012 BKN025
TEMPO 1412/1415 BKN009
BECMG 1502/1505 17011KT
TEMPO 1506/1509 RA BKN009
BECMG 1509/1511 24015G25KT



MET'MAP, your aeronautical weather chart ! - Copyright ORBIFLY December 2007 - Disclaimer

ORBIFLY MET'MAP TEAM :

Programming & Development : Alexandra Zaïnal
Concept & original design : Baudouin d'Aumeries
Assistance for programming : Marc-Olivier Méhu
Technical & hardware support : Manuel Goepfert

Contact : metmap@orbifly.com




SOURCES & CREDITS :

   NOAA